sensor_id;sensor_type;location;lat;lon;timestamp;temperature;humidity
15217;DHT22;7711;46.634;14.318;2023-10-09T00:01:04;12.90;99.90
15217;DHT22;7711;46.634;14.318;2023-10-09T00:03:39;12.90;99.90
15217;DHT22;7711;46.634;14.318;2023-10-09T00:06:07;12.90;99.90
15217;DHT22;7711;46.634;14.318;2023-10-09T00:08:38;12.90;99.90
15217;DHT22;7711;46.634;14.318;2023-10-09T00:11:10;12.90;99.90
15217;DHT22;7711;46.634;14.318;2023-10-09T00:13:42;12.80;99.90
15217;DHT22;7711;46.634;14.318;2023-10-09T00:16:18;12.80;99.90
15217;DHT22;7711;46.634;14.318;2023-10-09T00:18:50;12.70;99.90
15217;DHT22;7711;46.634;14.318;2023-10-09T00:21:19;12.70;99.90
15217;DHT22;7711;46.634;14.318;2023-10-09T00:23:48;12.70;99.90
15217;DHT22;7711;46.634;14.318;2023-10-09T00:26:20;12.80;99.90
15217;DHT22;7711;46.634;14.318;2023-10-09T00:28:49;12.60;99.90
15217;DHT22;7711;46.634;14.318;2023-10-09T00:31:18;12.50;99.90
15217;DHT22;7711;46.634;14.318;2023-10-09T00:33:55;12.50;99.90
15217;DHT22;7711;46.634;14.318;2023-10-09T00:36:27;12.50;99.90
15217;DHT22;7711;46.634;14.318;2023-10-09T00:38:54;12.50;99.90
15217;DHT22;7711;46.634;14.318;2023-10-09T00:41:26;12.40;99.90
15217;DHT22;7711;46.634;14.318;2023-10-09T00:43:55;12.40;99.90
15217;DHT22;7711;46.634;14.318;2023-10-09T00:46:27;12.40;99.90
15217;DHT22;7711;46.634;14.318;2023-10-09T00:48:56;12.30;99.90
15217;DHT22;7711;46.634;14.318;2023-10-09T00:51:26;12.30;99.90
15217;DHT22;7711;46.634;14.318;2023-10-09T00:54:01;12.30;99.90
15217;DHT22;7711;46.634;14.318;2023-10-09T00:56:33;12.20;99.90
15217;DHT22;7711;46.634;14.318;2023-10-09T00:59:08;12.20;99.90
15217;DHT22;7711;46.634;14.318;2023-10-09T01:01:41;12.20;99.90
15217;DHT22;7711;46.634;14.318;2023-10-09T01:04:15;12.10;99.90
15217;DHT22;7711;46.634;14.318;2023-10-09T01:06:45;12.10;99.90
15217;DHT22;7711;46.634;14.318;2023-10-09T01:09:19;12.10;99.90
15217;DHT22;7711;46.634;14.318;2023-10-09T01:11:48;12.10;99.90
15217;DHT22;7711;46.634;14.318;2023-10-09T01:14:29;12.00;99.90
15217;DHT22;7711;46.634;14.318;2023-10-09T01:16:58;12.00;99.90
15217;DHT22;7711;46.634;14.318;2023-10-09T01:19:26;12.00;99.90
15217;DHT22;7711;46.634;14.318;2023-10-09T01:21:54;12.00;99.90
15217;DHT22;7711;46.634;14.318;2023-10-09T01:24:26;11.90;99.90
15217;DHT22;7711;46.634;14.318;2023-10-09T01:26:53;12.00;99.90
15217;DHT22;7711;46.634;14.318;2023-10-09T01:29:24;11.90;99.90
15217;DHT22;7711;46.634;14.318;2023-10-09T01:31:55;11.90;99.90
15217;DHT22;7711;46.634;14.318;2023-10-09T01:34:22;11.90;99.90
15217;DHT22;7711;46.634;14.318;2023-10-09T01:36:52;11.80;99.90
15217;DHT22;7711;46.634;14.318;2023-10-09T01:39:22;11.80;99.90
15217;DHT22;7711;46.634;14.318;2023-10-09T01:41:54;11.80;99.90
15217;DHT22;7711;46.634;14.318;2023-10-09T01:44:31;11.70;99.90
15217;DHT22;7711;46.634;14.318;2023-10-09T01:47:01;11.60;99.90
15217;DHT22;7711;46.634;14.318;2023-10-09T01:49:33;11.50;99.90
15217;DHT22;7711;46.634;14.318;2023-10-09T01:52:02;11.50;99.90
15217;DHT22;7711;46.634;14.318;2023-10-09T01:54:35;11.50;99.90
15217;DHT22;7711;46.634;14.318;2023-10-09T01:57:09;11.50;99.90
15217;DHT22;7711;46.634;14.318;2023-10-09T01:59:44;11.40;99.90
15217;DHT22;7711;46.634;14.318;2023-10-09T02:02:14;11.40;99.90
15217;DHT22;7711;46.634;14.318;2023-10-09T02:05:00;11.40;99.90
15217;DHT22;7711;46.634;14.318;2023-10-09T02:07:37;11.40;99.90
15217;DHT22;7711;46.634;14.318;2023-10-09T02:10:10;11.40;99.90
15217;DHT22;7711;46.634;14.318;2023-10-09T02:12:48;11.40;99.90
15217;DHT22;7711;46.634;14.318;2023-10-09T02:15:19;11.40;99.90
15217;DHT22;7711;46.634;14.318;2023-10-09T02:18:06;11.40;99.90
15217;DHT22;7711;46.634;14.318;2023-10-09T02:20:43;11.40;99.90
15217;DHT22;7711;46.634;14.318;2023-10-09T02:23:12;11.30;99.90
15217;DHT22;7711;46.634;14.318;2023-10-09T02:25:40;11.30;99.90
15217;DHT22;7711;46.634;14.318;2023-10-09T02:28:10;11.10;99.90
15217;DHT22;7711;46.634;14.318;2023-10-09T02:30:43;11.10;99.90
15217;DHT22;7711;46.634;14.318;2023-10-09T02:33:13;11.00;99.90
15217;DHT22;7711;46.634;14.318;2023-10-09T02:35:44;10.90;99.90
15217;DHT22;7711;46.634;14.318;2023-10-09T02:38:16;10.90;99.90
15217;DHT22;7711;46.634;14.318;2023-10-09T02:40:49;10.90;99.90
15217;DHT22;7711;46.634;14.318;2023-10-09T02:43:45;10.90;99.90
15217;DHT22;7711;46.634;14.318;2023-10-09T02:46:13;10.80;99.90
15217;DHT22;7711;46.634;14.318;2023-10-09T02:48:43;10.80;99.90
15217;DHT22;7711;46.634;14.318;2023-10-09T02:51:16;10.80;99.90
15217;DHT22;7711;46.634;14.318;2023-10-09T02:53:59;10.70;99.90
15217;DHT22;7711;46.634;14.318;2023-10-09T02:56:34;10.70;99.90
15217;DHT22;7711;46.634;14.318;2023-10-09T02:59:08;10.80;99.90
15217;DHT22;7711;46.634;14.318;2023-10-09T03:01:36;10.80;99.90
15217;DHT22;7711;46.634;14.318;2023-10-09T03:04:03;10.80;99.90
15217;DHT22;7711;46.634;14.318;2023-10-09T03:06:32;10.70;99.90
15217;DHT22;7711;46.634;14.318;2023-10-09T03:09:00;10.70;99.90
15217;DHT22;7711;46.634;14.318;2023-10-09T03:11:42;10.80;99.90
15217;DHT22;7711;46.634;14.318;2023-10-09T03:14:11;10.70;99.90
15217;DHT22;7711;46.634;14.318;2023-10-09T03:16:37;10.70;99.90
15217;DHT22;7711;46.634;14.318;2023-10-09T03:19:04;10.80;99.90
15217;DHT22;7711;46.634;14.318;2023-10-09T03:21:31;10.80;99.90
15217;DHT22;7711;46.634;14.318;2023-10-09T03:23:58;10.80;99.90
15217;DHT22;7711;46.634;14.318;2023-10-09T03:26:30;10.80;99.90
15217;DHT22;7711;46.634;14.318;2023-10-09T03:28:57;10.60;99.90
15217;DHT22;7711;46.634;14.318;2023-10-09T03:31:28;10.60;99.90
15217;DHT22;7711;46.634;14.318;2023-10-09T03:33:56;10.60;99.90
15217;DHT22;7711;46.634;14.318;2023-10-09T03:36:23;10.50;99.90
15217;DHT22;7711;46.634;14.318;2023-10-09T03:38:52;10.50;99.90
15217;DHT22;7711;46.634;14.318;2023-10-09T03:41:21;10.60;99.90
15217;DHT22;7711;46.634;14.318;2023-10-09T03:43:49;10.50;99.90
15217;DHT22;7711;46.634;14.318;2023-10-09T03:46:16;10.50;99.90
15217;DHT22;7711;46.634;14.318;2023-10-09T03:48:50;10.50;99.90
15217;DHT22;7711;46.634;14.318;2023-10-09T03:51:18;10.60;99.90
15217;DHT22;7711;46.634;14.318;2023-10-09T03:53:48;10.50;99.90
15217;DHT22;7711;46.634;14.318;2023-10-09T03:56:15;10.50;99.90
15217;DHT22;7711;46.634;14.318;2023-10-09T03:58:44;10.50;99.90
15217;DHT22;7711;46.634;14.318;2023-10-09T04:01:13;10.50;99.90
15217;DHT22;7711;46.634;14.318;2023-10-09T04:03:49;10.50;99.90
15217;DHT22;7711;46.634;14.318;2023-10-09T04:06:20;10.50;99.90
15217;DHT22;7711;46.634;14.318;2023-10-09T04:08:48;10.50;99.90
15217;DHT22;7711;46.634;14.318;2023-10-09T04:11:17;10.50;99.90
15217;DHT22;7711;46.634;14.318;2023-10-09T04:13:48;10.50;99.90
15217;DHT22;7711;46.634;14.318;2023-10-09T04:16:17;10.40;99.90
15217;DHT22;7711;46.634;14.318;2023-10-09T04:19:01;10.40;99.90
15217;DHT22;7711;46.634;14.318;2023-10-09T04:21:37;10.40;99.90
15217;DHT22;7711;46.634;14.318;2023-10-09T04:24:04;10.40;99.90
15217;DHT22;7711;46.634;14.318;2023-10-09T04:26:50;10.40;99.90
15217;DHT22;7711;46.634;14.318;2023-10-09T04:29:23;10.30;99.90
15217;DHT22;7711;46.634;14.318;2023-10-09T04:31:53;10.40;99.90
15217;DHT22;7711;46.634;14.318;2023-10-09T04:34:23;10.40;99.90
15217;DHT22;7711;46.634;14.318;2023-10-09T04:36:56;10.40;99.90
15217;DHT22;7711;46.634;14.318;2023-10-09T04:39:42;10.40;99.90
15217;DHT22;7711;46.634;14.318;2023-10-09T04:42:13;10.40;99.90
15217;DHT22;7711;46.634;14.318;2023-10-09T04:44:58;10.40;99.90
15217;DHT22;7711;46.634;14.318;2023-10-09T04:47:42;10.40;99.90
15217;DHT22;7711;46.634;14.318;2023-10-09T04:50:25;10.40;99.90
15217;DHT22;7711;46.634;14.318;2023-10-09T04:53:32;10.40;99.90
15217;DHT22;7711;46.634;14.318;2023-10-09T04:56:04;10.50;99.90
15217;DHT22;7711;46.634;14.318;2023-10-09T04:58:41;10.50;99.90
15217;DHT22;7711;46.634;14.318;2023-10-09T05:01:09;10.50;99.90
15217;DHT22;7711;46.634;14.318;2023-10-09T05:03:42;10.40;99.90
15217;DHT22;7711;46.634;14.318;2023-10-09T05:06:19;10.40;99.90
15217;DHT22;7711;46.634;14.318;2023-10-09T05:09:04;10.50;99.90
15217;DHT22;7711;46.634;14.318;2023-10-09T05:11:38;10.50;99.90
15217;DHT22;7711;46.634;14.318;2023-10-09T05:14:20;10.40;99.90
15217;DHT22;7711;46.634;14.318;2023-10-09T05:17:03;10.40;99.90
15217;DHT22;7711;46.634;14.318;2023-10-09T05:19:35;10.50;99.90
15217;DHT22;7711;46.634;14.318;2023-10-09T05:22:21;10.60;99.90
15217;DHT22;7711;46.634;14.318;2023-10-09T05:25:02;10.50;99.90
15217;DHT22;7711;46.634;14.318;2023-10-09T05:27:41;10.40;99.90
15217;DHT22;7711;46.634;14.318;2023-10-09T05:30:16;10.50;99.90
15217;DHT22;7711;46.634;14.318;2023-10-09T05:32:56;10.50;99.90
15217;DHT22;7711;46.634;14.318;2023-10-09T05:35:24;10.40;99.90
15217;DHT22;7711;46.634;14.318;2023-10-09T05:38:08;10.50;99.90
15217;DHT22;7711;46.634;14.318;2023-10-09T05:40:50;10.50;99.90
15217;DHT22;7711;46.634;14.318;2023-10-09T05:43:30;10.50;99.90
15217;DHT22;7711;46.634;14.318;2023-10-09T05:46:14;10.40;99.90
15217;DHT22;7711;46.634;14.318;2023-10-09T05:48:43;10.60;99.90
15217;DHT22;7711;46.634;14.318;2023-10-09T05:51:20;10.60;99.90
15217;DHT22;7711;46.634;14.318;2023-10-09T05:54:03;10.70;99.90
15217;DHT22;7711;46.634;14.318;2023-10-09T05:56:50;10.80;99.90
15217;DHT22;7711;46.634;14.318;2023-10-09T05:59:34;10.70;99.90
15217;DHT22;7711;46.634;14.318;2023-10-09T06:02:18;10.70;99.90
15217;DHT22;7711;46.634;14.318;2023-10-09T06:05:03;10.80;99.90
15217;DHT22;7711;46.634;14.318;2023-10-09T06:07:50;10.90;99.90
15217;DHT22;7711;46.634;14.318;2023-10-09T06:10:31;10.90;99.90
15217;DHT22;7711;46.634;14.318;2023-10-09T06:13:07;10.90;99.90
15217;DHT22;7711;46.634;14.318;2023-10-09T06:15:55;11.00;99.90
15217;DHT22;7711;46.634;14.318;2023-10-09T06:18:42;11.20;99.90
15217;DHT22;7711;46.634;14.318;2023-10-09T06:21:20;11.30;99.90
15217;DHT22;7711;46.634;14.318;2023-10-09T06:24:07;11.20;99.90
15217;DHT22;7711;46.634;14.318;2023-10-09T06:26:43;11.30;99.90
15217;DHT22;7711;46.634;14.318;2023-10-09T06:29:38;11.30;99.90
15217;DHT22;7711;46.634;14.318;2023-10-09T06:32:17;11.50;99.90
15217;DHT22;7711;46.634;14.318;2023-10-09T06:35:01;11.50;99.90
15217;DHT22;7711;46.634;14.318;2023-10-09T06:37:45;11.60;99.90
15217;DHT22;7711;46.634;14.318;2023-10-09T06:40:30;11.70;99.90
15217;DHT22;7711;46.634;14.318;2023-10-09T06:43:16;11.70;99.90
15217;DHT22;7711;46.634;14.318;2023-10-09T06:45:53;11.80;99.90
15217;DHT22;7711;46.634;14.318;2023-10-09T06:48:44;12.00;99.90
15217;DHT22;7711;46.634;14.318;2023-10-09T06:51:13;11.90;99.90
15217;DHT22;7711;46.634;14.318;2023-10-09T06:54:02;12.00;99.90
15217;DHT22;7711;46.634;14.318;2023-10-09T06:56:32;11.90;99.90
15217;DHT22;7711;46.634;14.318;2023-10-09T06:59:14;12.00;99.90
15217;DHT22;7711;46.634;14.318;2023-10-09T07:01:47;11.90;99.90
15217;DHT22;7711;46.634;14.318;2023-10-09T07:04:33;11.80;99.90
15217;DHT22;7711;46.634;14.318;2023-10-09T07:07:21;11.80;99.90
15217;DHT22;7711;46.634;14.318;2023-10-09T07:09:51;11.90;99.90
15217;DHT22;7711;46.634;14.318;2023-10-09T07:12:35;11.80;99.90
15217;DHT22;7711;46.634;14.318;2023-10-09T07:15:10;11.90;99.90
15217;DHT22;7711;46.634;14.318;2023-10-09T07:17:54;12.20;99.90
15217;DHT22;7711;46.634;14.318;2023-10-09T07:20:21;12.20;99.90
15217;DHT22;7711;46.634;14.318;2023-10-09T07:23:03;12.40;99.90
15217;DHT22;7711;46.634;14.318;2023-10-09T07:25:43;12.20;99.90
15217;DHT22;7711;46.634;14.318;2023-10-09T07:28:22;12.40;99.90
15217;DHT22;7711;46.634;14.318;2023-10-09T07:31:03;12.60;99.90
15217;DHT22;7711;46.634;14.318;2023-10-09T07:33:34;12.60;99.90
15217;DHT22;7711;46.634;14.318;2023-10-09T07:36:15;12.80;99.90
15217;DHT22;7711;46.634;14.318;2023-10-09T07:38:42;12.90;99.90
15217;DHT22;7711;46.634;14.318;2023-10-09T07:41:11;12.80;99.90
15217;DHT22;7711;46.634;14.318;2023-10-09T07:43:54;12.60;99.90
15217;DHT22;7711;46.634;14.318;2023-10-09T07:46:23;12.50;99.90
15217;DHT22;7711;46.634;14.318;2023-10-09T07:49:00;12.70;99.90
15217;DHT22;7711;46.634;14.318;2023-10-09T07:51:36;12.90;99.90
15217;DHT22;7711;46.634;14.318;2023-10-09T07:54:03;12.80;99.90
15217;DHT22;7711;46.634;14.318;2023-10-09T07:56:33;12.90;99.90
15217;DHT22;7711;46.634;14.318;2023-10-09T07:59:04;12.70;99.90
15217;DHT22;7711;46.634;14.318;2023-10-09T08:01:39;12.80;99.90
15217;DHT22;7711;46.634;14.318;2023-10-09T08:04:17;12.80;99.90
15217;DHT22;7711;46.634;14.318;2023-10-09T08:07:02;13.00;99.90
15217;DHT22;7711;46.634;14.318;2023-10-09T08:09:32;13.30;99.90
15217;DHT22;7711;46.634;14.318;2023-10-09T08:12:12;13.50;99.90
15217;DHT22;7711;46.634;14.318;2023-10-09T08:15:07;13.70;99.90
15217;DHT22;7711;46.634;14.318;2023-10-09T08:17:48;14.30;99.90
15217;DHT22;7711;46.634;14.318;2023-10-09T08:20:21;14.50;99.90
15217;DHT22;7711;46.634;14.318;2023-10-09T08:22:51;14.30;99.90
15217;DHT22;7711;46.634;14.318;2023-10-09T08:25:21;14.30;99.90
15217;DHT22;7711;46.634;14.318;2023-10-09T08:27:57;14.10;99.90
15217;DHT22;7711;46.634;14.318;2023-10-09T08:30:25;14.20;99.90
15217;DHT22;7711;46.634;14.318;2023-10-09T08:33:17;14.10;99.90
15217;DHT22;7711;46.634;14.318;2023-10-09T08:36:01;14.00;99.90
15217;DHT22;7711;46.634;14.318;2023-10-09T08:38:30;14.40;99.90
15217;DHT22;7711;46.634;14.318;2023-10-09T08:41:07;14.30;99.90
15217;DHT22;7711;46.634;14.318;2023-10-09T08:43:47;14.40;99.90
15217;DHT22;7711;46.634;14.318;2023-10-09T08:46:19;14.20;99.90
15217;DHT22;7711;46.634;14.318;2023-10-09T08:48:48;14.20;99.90
15217;DHT22;7711;46.634;14.318;2023-10-09T08:51:17;14.60;99.90
15217;DHT22;7711;46.634;14.318;2023-10-09T08:53:46;15.00;99.90
15217;DHT22;7711;46.634;14.318;2023-10-09T08:56:13;15.10;99.90
15217;DHT22;7711;46.634;14.318;2023-10-09T08:58:48;15.30;99.90
15217;DHT22;7711;46.634;14.318;2023-10-09T09:01:17;15.70;99.90
15217;DHT22;7711;46.634;14.318;2023-10-09T09:03:49;15.70;99.90
15217;DHT22;7711;46.634;14.318;2023-10-09T09:06:17;15.30;99.90
15217;DHT22;7711;46.634;14.318;2023-10-09T09:08:45;15.10;99.90
15217;DHT22;7711;46.634;14.318;2023-10-09T09:11:13;15.40;99.90
15217;DHT22;7711;46.634;14.318;2023-10-09T09:13:44;15.50;99.90
15217;DHT22;7711;46.634;14.318;2023-10-09T09:16:18;15.80;99.90
15217;DHT22;7711;46.634;14.318;2023-10-09T09:18:52;15.40;99.90
15217;DHT22;7711;46.634;14.318;2023-10-09T09:21:25;15.60;99.90
15217;DHT22;7711;46.634;14.318;2023-10-09T09:23:54;15.70;99.90
15217;DHT22;7711;46.634;14.318;2023-10-09T09:26:33;16.00;99.90
15217;DHT22;7711;46.634;14.318;2023-10-09T09:29:04;16.40;99.90
15217;DHT22;7711;46.634;14.318;2023-10-09T09:31:32;16.50;99.90
15217;DHT22;7711;46.634;14.318;2023-10-09T09:34:05;16.10;99.90
15217;DHT22;7711;46.634;14.318;2023-10-09T09:36:53;16.10;99.90
15217;DHT22;7711;46.634;14.318;2023-10-09T09:39:22;16.30;99.90
15217;DHT22;7711;46.634;14.318;2023-10-09T09:41:55;16.20;99.90
15217;DHT22;7711;46.634;14.318;2023-10-09T09:44:31;16.30;99.90
15217;DHT22;7711;46.634;14.318;2023-10-09T09:47:00;16.20;99.90
15217;DHT22;7711;46.634;14.318;2023-10-09T09:49:28;16.10;99.90
15217;DHT22;7711;46.634;14.318;2023-10-09T09:52:01;16.20;99.90
15217;DHT22;7711;46.634;14.318;2023-10-09T09:54:36;16.10;99.90
15217;DHT22;7711;46.634;14.318;2023-10-09T09:57:03;16.30;99.90
15217;DHT22;7711;46.634;14.318;2023-10-09T09:59:38;16.50;99.90
15217;DHT22;7711;46.634;14.318;2023-10-09T10:02:19;16.40;99.90
15217;DHT22;7711;46.634;14.318;2023-10-09T10:04:53;16.60;99.90
15217;DHT22;7711;46.634;14.318;2023-10-09T10:07:22;16.60;99.90
15217;DHT22;7711;46.634;14.318;2023-10-09T10:09:50;16.50;99.90
15217;DHT22;7711;46.634;14.318;2023-10-09T10:15:58;16.40;99.90
15217;DHT22;7711;46.634;14.318;2023-10-09T10:18:31;16.50;99.90
15217;DHT22;7711;46.634;14.318;2023-10-09T10:21:14;16.40;99.90
15217;DHT22;7711;46.634;14.318;2023-10-09T10:23:44;16.60;99.90
15217;DHT22;7711;46.634;14.318;2023-10-09T10:26:18;16.90;99.90
15217;DHT22;7711;46.634;14.318;2023-10-09T10:29:15;16.90;99.90
15217;DHT22;7711;46.634;14.318;2023-10-09T10:31:52;17.20;99.90
15217;DHT22;7711;46.634;14.318;2023-10-09T10:34:20;17.00;99.90
15217;DHT22;7711;46.634;14.318;2023-10-09T10:36:51;17.00;99.90
15217;DHT22;7711;46.634;14.318;2023-10-09T10:39:24;17.10;99.90
15217;DHT22;7711;46.634;14.318;2023-10-09T10:42:08;17.00;99.90
15217;DHT22;7711;46.634;14.318;2023-10-09T10:44:41;17.10;99.90
15217;DHT22;7711;46.634;14.318;2023-10-09T10:47:12;17.50;99.90
15217;DHT22;7711;46.634;14.318;2023-10-09T10:49:51;17.50;99.90
15217;DHT22;7711;46.634;14.318;2023-10-09T10:52:25;17.60;99.90
15217;DHT22;7711;46.634;14.318;2023-10-09T10:55:12;17.30;99.90
15217;DHT22;7711;46.634;14.318;2023-10-09T10:58:15;17.80;99.90
15217;DHT22;7711;46.634;14.318;2023-10-09T11:00:52;18.20;99.90
15217;DHT22;7711;46.634;14.318;2023-10-09T11:03:37;18.50;99.90
15217;DHT22;7711;46.634;14.318;2023-10-09T11:06:25;18.60;99.90
15217;DHT22;7711;46.634;14.318;2023-10-09T11:09:03;18.20;99.90
15217;DHT22;7711;46.634;14.318;2023-10-09T11:11:47;18.20;99.90
15217;DHT22;7711;46.634;14.318;2023-10-09T11:14:14;18.10;99.90
15217;DHT22;7711;46.634;14.318;2023-10-09T11:16:43;18.20;99.90
15217;DHT22;7711;46.634;14.318;2023-10-09T11:19:14;18.20;99.90
15217;DHT22;7711;46.634;14.318;2023-10-09T11:21:59;17.80;99.90
15217;DHT22;7711;46.634;14.318;2023-10-09T11:24:56;17.70;99.90
15217;DHT22;7711;46.634;14.318;2023-10-09T11:27:40;17.90;99.90
15217;DHT22;7711;46.634;14.318;2023-10-09T11:30:16;17.70;99.90
15217;DHT22;7711;46.634;14.318;2023-10-09T11:33:06;17.60;99.90
15217;DHT22;7711;46.634;14.318;2023-10-09T11:35:39;17.70;99.90
15217;DHT22;7711;46.634;14.318;2023-10-09T11:38:08;17.90;99.90
15217;DHT22;7711;46.634;14.318;2023-10-09T11:40:48;18.00;99.90
15217;DHT22;7711;46.634;14.318;2023-10-09T11:43:45;18.60;99.90
15217;DHT22;7711;46.634;14.318;2023-10-09T11:46:18;18.50;99.90
15217;DHT22;7711;46.634;14.318;2023-10-09T11:49:08;19.00;99.90
15217;DHT22;7711;46.634;14.318;2023-10-09T11:52:06;19.50;99.90
15217;DHT22;7711;46.634;14.318;2023-10-09T11:54:50;19.10;99.90
15217;DHT22;7711;46.634;14.318;2023-10-09T11:57:24;19.30;99.90
15217;DHT22;7711;46.634;14.318;2023-10-09T11:59:56;18.90;99.90
15217;DHT22;7711;46.634;14.318;2023-10-09T12:02:24;19.00;99.90
15217;DHT22;7711;46.634;14.318;2023-10-09T12:04:51;19.40;99.90
15217;DHT22;7711;46.634;14.318;2023-10-09T12:07:22;19.90;99.90
15217;DHT22;7711;46.634;14.318;2023-10-09T12:09:49;20.10;99.90
15217;DHT22;7711;46.634;14.318;2023-10-09T12:12:17;20.20;99.90
15217;DHT22;7711;46.634;14.318;2023-10-09T12:14:53;20.00;99.90
15217;DHT22;7711;46.634;14.318;2023-10-09T12:17:20;20.50;99.90
15217;DHT22;7711;46.634;14.318;2023-10-09T12:19:50;20.50;99.90
15217;DHT22;7711;46.634;14.318;2023-10-09T12:22:18;20.60;99.90
15217;DHT22;7711;46.634;14.318;2023-10-09T12:24:47;20.50;99.90
15217;DHT22;7711;46.634;14.318;2023-10-09T12:27:14;20.70;99.90
15217;DHT22;7711;46.634;14.318;2023-10-09T12:29:46;21.10;99.90
15217;DHT22;7711;46.634;14.318;2023-10-09T12:32:14;21.50;99.90
15217;DHT22;7711;46.634;14.318;2023-10-09T12:34:45;21.50;99.90
15217;DHT22;7711;46.634;14.318;2023-10-09T12:37:15;21.00;99.90
15217;DHT22;7711;46.634;14.318;2023-10-09T12:39:46;21.30;99.90
15217;DHT22;7711;46.634;14.318;2023-10-09T12:42:13;21.50;99.90
15217;DHT22;7711;46.634;14.318;2023-10-09T12:44:42;20.80;99.90
15217;DHT22;7711;46.634;14.318;2023-10-09T12:47:10;20.50;99.90
15217;DHT22;7711;46.634;14.318;2023-10-09T12:49:39;20.90;99.90
15217;DHT22;7711;46.634;14.318;2023-10-09T12:52:06;20.70;99.90
15217;DHT22;7711;46.634;14.318;2023-10-09T12:54:41;20.40;99.90
15217;DHT22;7711;46.634;14.318;2023-10-09T12:57:09;20.30;99.90
15217;DHT22;7711;46.634;14.318;2023-10-09T12:59:39;20.50;99.90
15217;DHT22;7711;46.634;14.318;2023-10-09T13:02:11;21.90;99.90
15217;DHT22;7711;46.634;14.318;2023-10-09T13:04:40;23.20;99.90
15217;DHT22;7711;46.634;14.318;2023-10-09T13:07:08;24.20;99.90
15217;DHT22;7711;46.634;14.318;2023-10-09T13:09:35;25.60;99.90
15217;DHT22;7711;46.634;14.318;2023-10-09T13:12:08;25.70;99.90
15217;DHT22;7711;46.634;14.318;2023-10-09T13:14:35;25.80;99.90
15217;DHT22;7711;46.634;14.318;2023-10-09T13:17:02;26.50;99.90
15217;DHT22;7711;46.634;14.318;2023-10-09T13:19:35;26.20;99.90
15217;DHT22;7711;46.634;14.318;2023-10-09T13:22:04;26.40;99.90
15217;DHT22;7711;46.634;14.318;2023-10-09T13:24:38;26.90;99.90
15217;DHT22;7711;46.634;14.318;2023-10-09T13:27:05;25.40;99.90
15217;DHT22;7711;46.634;14.318;2023-10-09T13:29:36;25.80;99.90
15217;DHT22;7711;46.634;14.318;2023-10-09T13:32:05;25.10;99.90
15217;DHT22;7711;46.634;14.318;2023-10-09T13:34:39;24.40;99.90
15217;DHT22;7711;46.634;14.318;2023-10-09T13:37:11;24.10;99.90
15217;DHT22;7711;46.634;14.318;2023-10-09T13:39:39;24.90;99.90
15217;DHT22;7711;46.634;14.318;2023-10-09T13:42:17;24.60;99.90
15217;DHT22;7711;46.634;14.318;2023-10-09T13:44:44;24.50;99.90
15217;DHT22;7711;46.634;14.318;2023-10-09T13:47:14;24.70;99.90
15217;DHT22;7711;46.634;14.318;2023-10-09T13:49:46;25.00;99.90
15217;DHT22;7711;46.634;14.318;2023-10-09T13:52:17;25.20;99.90
15217;DHT22;7711;46.634;14.318;2023-10-09T13:54:45;26.00;99.90
15217;DHT22;7711;46.634;14.318;2023-10-09T13:57:15;26.50;99.90
15217;DHT22;7711;46.634;14.318;2023-10-09T13:59:42;26.50;99.90
15217;DHT22;7711;46.634;14.318;2023-10-09T14:02:14;25.90;99.90
15217;DHT22;7711;46.634;14.318;2023-10-09T14:04:44;25.80;99.90
15217;DHT22;7711;46.634;14.318;2023-10-09T14:07:11;26.00;99.90
15217;DHT22;7711;46.634;14.318;2023-10-09T14:09:43;25.70;99.90
15217;DHT22;7711;46.634;14.318;2023-10-09T14:12:22;26.10;99.90
15217;DHT22;7711;46.634;14.318;2023-10-09T14:14:51;26.00;99.90
15217;DHT22;7711;46.634;14.318;2023-10-09T14:17:21;25.30;99.90
15217;DHT22;7711;46.634;14.318;2023-10-09T14:19:51;25.60;99.90
15217;DHT22;7711;46.634;14.318;2023-10-09T14:22:19;25.50;99.90
15217;DHT22;7711;46.634;14.318;2023-10-09T14:24:49;25.80;99.90
15217;DHT22;7711;46.634;14.318;2023-10-09T14:27:22;25.80;99.90
15217;DHT22;7711;46.634;14.318;2023-10-09T14:29:52;25.30;99.90
15217;DHT22;7711;46.634;14.318;2023-10-09T14:32:21;24.60;99.90
15217;DHT22;7711;46.634;14.318;2023-10-09T14:34:54;24.50;99.90
15217;DHT22;7711;46.634;14.318;2023-10-09T14:37:26;23.70;99.90
15217;DHT22;7711;46.634;14.318;2023-10-09T14:39:55;23.30;99.90
15217;DHT22;7711;46.634;14.318;2023-10-09T14:42:24;23.20;99.90
15217;DHT22;7711;46.634;14.318;2023-10-09T14:44:53;22.70;99.90
15217;DHT22;7711;46.634;14.318;2023-10-09T14:47:21;22.30;99.90
15217;DHT22;7711;46.634;14.318;2023-10-09T14:49:48;22.20;99.90
15217;DHT22;7711;46.634;14.318;2023-10-09T14:52:16;22.10;99.90
15217;DHT22;7711;46.634;14.318;2023-10-09T14:54:44;22.00;99.90
15217;DHT22;7711;46.634;14.318;2023-10-09T14:57:13;21.70;99.90
15217;DHT22;7711;46.634;14.318;2023-10-09T14:59:40;21.30;99.90
15217;DHT22;7711;46.634;14.318;2023-10-09T15:02:08;21.20;99.90
15217;DHT22;7711;46.634;14.318;2023-10-09T15:04:35;20.90;99.90
15217;DHT22;7711;46.634;14.318;2023-10-09T15:07:03;20.80;99.90
15217;DHT22;7711;46.634;14.318;2023-10-09T15:09:32;20.70;99.90
15217;DHT22;7711;46.634;14.318;2023-10-09T15:12:02;20.60;99.90
15217;DHT22;7711;46.634;14.318;2023-10-09T15:14:33;20.40;99.90
15217;DHT22;7711;46.634;14.318;2023-10-09T15:17:00;20.30;99.90
15217;DHT22;7711;46.634;14.318;2023-10-09T15:19:27;20.10;99.90
15217;DHT22;7711;46.634;14.318;2023-10-09T15:21:56;20.00;99.90
15217;DHT22;7711;46.634;14.318;2023-10-09T15:24:24;19.90;99.90
15217;DHT22;7711;46.634;14.318;2023-10-09T15:26:53;19.70;99.90
15217;DHT22;7711;46.634;14.318;2023-10-09T15:29:23;19.70;99.90
15217;DHT22;7711;46.634;14.318;2023-10-09T15:31:55;19.60;99.90
15217;DHT22;7711;46.634;14.318;2023-10-09T15:34:26;19.50;99.90
15217;DHT22;7711;46.634;14.318;2023-10-09T15:36:53;19.20;99.90
15217;DHT22;7711;46.634;14.318;2023-10-09T15:39:20;19.20;99.90
15217;DHT22;7711;46.634;14.318;2023-10-09T15:41:47;19.20;99.90
15217;DHT22;7711;46.634;14.318;2023-10-09T15:44:14;19.10;99.90
15217;DHT22;7711;46.634;14.318;2023-10-09T15:46:42;19.10;99.90
15217;DHT22;7711;46.634;14.318;2023-10-09T15:49:12;19.00;99.90
15217;DHT22;7711;46.634;14.318;2023-10-09T15:51:40;18.80;99.90
15217;DHT22;7711;46.634;14.318;2023-10-09T15:54:09;18.80;99.90
15217;DHT22;7711;46.634;14.318;2023-10-09T15:56:38;18.70;99.90
15217;DHT22;7711;46.634;14.318;2023-10-09T15:59:07;18.70;99.90
15217;DHT22;7711;46.634;14.318;2023-10-09T16:01:37;18.60;99.90
15217;DHT22;7711;46.634;14.318;2023-10-09T16:04:06;18.50;99.90
15217;DHT22;7711;46.634;14.318;2023-10-09T16:06:37;18.40;99.90
15217;DHT22;7711;46.634;14.318;2023-10-09T16:09:06;18.30;99.90
15217;DHT22;7711;46.634;14.318;2023-10-09T16:11:37;18.20;99.90
15217;DHT22;7711;46.634;14.318;2023-10-09T16:14:05;18.10;99.90